Durham, Oregon
Current Conditions -  °F | °C
As of 8:53 PM on Tuesday 21 Oct 2014 (Local Time) from KHIO Reporting Station
Overcast Overcast  
Wind Chill: 57°   Ceiling: 10000
Heat Index: 57°   Visibility: 10mi
Dew Point: 49°   Wind: 6mph
Humidity: 74%   Direction: 150°SSE
Pressure: 29.87"   Gusts: NA
Location:  45.4077°N, 122.809°W
Report Text: KHIO 220353Z 15005KT 10SM SCT055 BKN100 OVC120 14/09 A2987 RMK AO2 SLP113 T01390094
Loading
Personal Weather Stations






























Interactive Weather Map
Tropical Storm Tracking
New forecast layout! Learn more

10-Day Weather Forecast

Advertisements
Track Severe Weather on mobile